createdAt,value
2019-01-24T00:01:28.129Z,6.60
2019-01-24T00:04:05.533Z,6.53
2019-01-24T00:06:42.151Z,6.47
2019-01-24T00:09:18.008Z,5.95
2019-01-24T00:11:54.145Z,6.47
2019-01-24T00:14:31.465Z,6.40
2019-01-24T00:17:07.413Z,5.55
2019-01-24T00:19:44.284Z,6.10
2019-01-24T00:22:20.896Z,6.22
2019-01-24T00:24:57.393Z,6.33
2019-01-24T00:27:33.626Z,6.60
2019-01-24T00:30:11.332Z,6.33
2019-01-24T00:32:47.733Z,6.53
2019-01-24T00:35:24.980Z,6.10
2019-01-24T00:38:01.403Z,6.00
2019-01-24T00:40:38.085Z,6.77
2019-01-24T00:43:14.691Z,7.83
2019-01-24T00:45:51.980Z,6.85
2019-01-24T00:48:27.770Z,6.80
2019-01-24T00:51:04.617Z,6.35
2019-01-24T00:53:41.124Z,6.95
2019-01-24T00:56:18.016Z,6.42
2019-01-24T00:58:54.361Z,7.08
2019-01-24T01:01:30.652Z,6.85
2019-01-24T01:04:06.739Z,6.47
2019-01-24T01:06:43.980Z,7.17
2019-01-24T01:09:20.740Z,6.45
2019-01-24T01:11:57.229Z,6.60
2019-01-24T01:14:32.852Z,7.03
2019-01-24T01:17:10.029Z,6.53
2019-01-24T01:19:45.783Z,6.10
2019-01-24T01:22:25.313Z,6.22
2019-01-24T01:25:00.996Z,6.67
2019-01-24T01:27:38.097Z,6.58
2019-01-24T01:30:16.977Z,6.53
2019-01-24T01:32:54.040Z,6.80
2019-01-24T01:35:30.748Z,6.63
2019-01-24T01:38:08.367Z,6.50
2019-01-24T01:40:44.910Z,7.25
2019-01-24T01:43:22.436Z,6.87
2019-01-24T01:45:58.984Z,6.65
2019-01-24T01:48:35.056Z,7.00
2019-01-24T01:51:11.665Z,6.30
2019-01-24T01:53:48.161Z,6.70
2019-01-24T01:56:24.537Z,7.72
2019-01-24T01:59:01.347Z,7.23
2019-01-24T02:01:37.177Z,7.20
2019-01-24T02:04:13.845Z,7.07
2019-01-24T02:06:49.718Z,6.25
2019-01-24T02:09:26.813Z,6.85
2019-01-24T02:12:03.057Z,7.17
2019-01-24T02:14:39.443Z,6.55
2019-01-24T02:17:15.682Z,7.63
2019-01-24T02:19:51.861Z,6.95
2019-01-24T02:22:28.191Z,7.15
2019-01-24T02:25:06.628Z,6.60
2019-01-24T02:27:43.080Z,7.30
2019-01-24T02:30:21.706Z,7.15
2019-01-24T02:32:58.387Z,6.55
2019-01-24T02:35:34.759Z,7.42
2019-01-24T02:38:11.123Z,7.20
2019-01-24T02:40:47.441Z,7.23
2019-01-24T02:43:23.393Z,7.78
2019-01-24T02:46:00.385Z,7.58
2019-01-24T02:48:36.972Z,7.45
2019-01-24T02:51:14.084Z,7.60
2019-01-24T02:53:50.845Z,7.55
2019-01-24T02:56:27.179Z,7.08
2019-01-24T02:59:04.098Z,7.55
2019-01-24T03:01:41.022Z,7.58
2019-01-24T03:04:17.542Z,7.10
2019-01-24T03:06:54.336Z,7.20
2019-01-24T03:09:30.261Z,7.87
2019-01-24T03:12:07.065Z,7.83
2019-01-24T03:14:43.609Z,7.23
2019-01-24T03:17:20.360Z,7.90
2019-01-24T03:19:56.089Z,7.43
2019-01-24T03:22:32.128Z,7.12
2019-01-24T03:25:08.449Z,7.43
2019-01-24T03:27:44.587Z,7.97
2019-01-24T03:30:22.030Z,7.67
2019-01-24T03:32:58.742Z,7.30
2019-01-24T03:35:35.152Z,8.10
2019-01-24T03:38:12.160Z,7.55
2019-01-24T03:40:48.171Z,7.50
2019-01-24T03:43:24.421Z,7.80
2019-01-24T03:46:00.304Z,7.70
2019-01-24T03:48:37.391Z,7.25
2019-01-24T03:51:13.345Z,8.30
2019-01-24T03:53:49.632Z,7.95
2019-01-24T03:56:25.572Z,8.45
2019-01-24T03:59:02.600Z,7.87
2019-01-24T04:01:39.013Z,8.18
2019-01-24T04:04:15.917Z,8.83
2019-01-24T04:06:51.944Z,8.60
2019-01-24T04:09:28.759Z,8.85
2019-01-24T04:12:05.612Z,7.63
2019-01-24T04:14:42.112Z,7.97
2019-01-24T04:17:18.400Z,8.73
2019-01-24T04:19:54.576Z,8.23
2019-01-24T04:22:31.180Z,8.77
2019-01-24T04:25:08.965Z,8.70
2019-01-24T04:27:45.440Z,8.95
2019-01-24T04:30:23.177Z,8.75
2019-01-24T04:32:59.702Z,8.40
2019-01-24T04:35:36.101Z,9.20
2019-01-24T04:38:12.270Z,8.97
2019-01-24T04:40:49.554Z,8.73
2019-01-24T04:43:25.905Z,9.13
2019-01-24T04:46:02.932Z,9.23
2019-01-24T04:48:39.130Z,8.97
2019-01-24T04:51:15.744Z,8.63
2019-01-24T04:53:52.069Z,8.93
2019-01-24T04:56:28.487Z,9.37
2019-01-24T04:59:05.270Z,9.40
2019-01-24T05:01:42.010Z,9.80
2019-01-24T05:04:17.736Z,8.90
2019-01-24T05:06:54.561Z,9.15
2019-01-24T05:09:31.253Z,9.78
2019-01-24T05:12:08.225Z,9.20
2019-01-24T05:14:43.921Z,8.58
2019-01-24T05:17:20.939Z,9.70
2019-01-24T05:19:57.052Z,9.58
2019-01-24T05:22:33.196Z,10.13
2019-01-24T05:25:11.013Z,9.63
2019-01-24T05:27:49.253Z,9.90
2019-01-24T05:30:29.770Z,9.83
2019-01-24T05:33:06.592Z,9.28
2019-01-24T05:35:42.938Z,9.23
2019-01-24T05:38:19.600Z,9.40
2019-01-24T05:40:55.681Z,9.88
2019-01-24T05:43:32.679Z,10.48
2019-01-24T05:46:09.132Z,10.50
2019-01-24T05:48:46.755Z,9.65
2019-01-24T05:51:22.870Z,10.23
2019-01-24T05:53:59.494Z,10.03
2019-01-24T05:56:35.120Z,10.48
2019-01-24T05:59:11.440Z,10.00
2019-01-24T06:01:48.141Z,10.48
2019-01-24T06:04:24.610Z,9.55
2019-01-24T06:07:01.168Z,9.13
2019-01-24T06:09:37.281Z,9.10
2019-01-24T06:12:13.252Z,9.90
2019-01-24T06:14:49.625Z,8.78
2019-01-24T06:17:26.244Z,9.83
2019-01-24T06:20:02.726Z,10.53
2019-01-24T06:22:39.478Z,8.65
2019-01-24T06:25:16.377Z,9.05
2019-01-24T06:27:52.624Z,9.93
2019-01-24T06:30:28.805Z,9.53
2019-01-24T06:33:05.837Z,10.03
2019-01-24T06:35:48.450Z,8.98
2019-01-24T06:38:20.324Z,9.33
2019-01-24T06:40:57.262Z,9.50
2019-01-24T06:43:33.375Z,9.00
2019-01-24T06:46:09.573Z,9.30
2019-01-24T06:48:46.121Z,9.47
2019-01-24T06:51:23.214Z,9.20
2019-01-24T06:53:59.710Z,9.10
2019-01-24T06:56:36.393Z,9.00
2019-01-24T06:59:12.904Z,8.20
2019-01-24T07:01:49.256Z,9.33
2019-01-24T07:04:25.648Z,8.83
2019-01-24T07:07:02.292Z,9.27
2019-01-24T07:09:38.441Z,9.00
2019-01-24T07:12:14.797Z,8.83
2019-01-24T07:14:50.892Z,8.78
2019-01-24T07:17:27.763Z,8.83
2019-01-24T07:20:04.634Z,8.78
2019-01-24T07:22:41.204Z,30.63
2019-01-24T07:25:19.573Z,32.67
2019-01-24T07:27:56.244Z,33.37
2019-01-24T07:30:32.629Z,26.70
2019-01-24T07:33:08.746Z,26.50
2019-01-24T07:35:44.704Z,26.95
2019-01-24T07:38:21.795Z,24.23
2019-01-24T07:40:58.348Z,24.90
2019-01-24T07:43:35.048Z,22.57
2019-01-24T07:46:10.876Z,23.23
2019-01-24T07:48:47.576Z,22.70
2019-01-24T07:51:24.097Z,21.47
2019-01-24T07:54:00.467Z,20.30
2019-01-24T07:56:36.191Z,21.23
2019-01-24T07:59:11.852Z,21.37
2019-01-24T08:01:47.921Z,20.75
2019-01-24T08:04:24.884Z,21.30
2019-01-24T08:07:00.685Z,19.20
2019-01-24T08:09:37.547Z,20.47
2019-01-24T08:12:13.708Z,21.42
2019-01-24T08:14:49.716Z,19.83
2019-01-24T08:17:25.852Z,18.73
2019-01-24T08:20:02.240Z,18.87
2019-01-24T08:22:38.754Z,19.30
2019-01-24T08:25:16.240Z,18.63
2019-01-24T08:27:52.813Z,19.37
2019-01-24T08:30:31.162Z,18.85
2019-01-24T08:33:07.699Z,18.20
2019-01-24T08:35:44.621Z,18.43
2019-01-24T08:38:20.747Z,17.12
2019-01-24T08:40:57.054Z,17.93
2019-01-24T08:43:33.340Z,17.30
2019-01-24T08:46:09.905Z,17.60
2019-01-24T08:48:45.901Z,17.92
2019-01-24T08:51:22.088Z,17.93
2019-01-24T08:53:57.773Z,17.63
2019-01-24T08:56:34.977Z,17.73
2019-01-24T08:59:11.480Z,17.20
2019-01-24T09:01:48.637Z,18.03
2019-01-24T09:04:25.532Z,16.93
2019-01-24T09:07:01.910Z,17.33
2019-01-24T09:09:38.273Z,17.20
2019-01-24T09:12:15.013Z,16.45
2019-01-24T09:14:51.991Z,16.75
2019-01-24T09:17:28.743Z,16.70
2019-01-24T09:20:08.237Z,16.20
2019-01-24T09:22:44.432Z,15.38
2019-01-24T09:25:20.533Z,17.07
2019-01-24T09:27:57.652Z,17.37
2019-01-24T09:30:34.440Z,15.53
2019-01-24T09:33:10.754Z,15.78
2019-01-24T09:35:47.338Z,15.18
2019-01-24T09:38:24.053Z,16.17
2019-01-24T09:41:00.297Z,16.07
2019-01-24T09:43:36.516Z,15.70
2019-01-24T09:46:12.321Z,15.13
2019-01-24T09:48:48.012Z,15.43
2019-01-24T09:51:23.684Z,14.87
2019-01-24T09:53:59.797Z,16.30
2019-01-24T09:56:35.742Z,16.90
2019-01-24T09:59:12.079Z,15.60
2019-01-24T10:01:48.643Z,15.70
2019-01-24T10:04:25.319Z,16.17
2019-01-24T10:07:02.204Z,15.90
2019-01-24T10:09:38.701Z,16.50
2019-01-24T10:12:15.446Z,16.20
2019-01-24T10:14:52.675Z,16.60
2019-01-24T10:17:28.905Z,16.60
2019-01-24T10:20:07.200Z,16.05
2019-01-24T10:22:44.190Z,15.28
2019-01-24T10:25:23.512Z,17.45
2019-01-24T10:27:59.703Z,18.32
2019-01-24T10:30:42.329Z,19.80
2019-01-24T10:33:14.904Z,18.82
2019-01-24T10:35:51.929Z,17.85
2019-01-24T10:38:28.340Z,18.67
2019-01-24T10:41:04.804Z,18.02
2019-01-24T10:43:41.213Z,17.80
2019-01-24T10:46:17.953Z,18.60
2019-01-24T10:48:54.740Z,17.65
2019-01-24T10:51:31.473Z,19.98
2019-01-24T10:54:07.566Z,18.10
2019-01-24T10:56:43.914Z,17.48
2019-01-24T10:59:19.804Z,17.10
2019-01-24T11:01:57.181Z,17.12
2019-01-24T11:04:33.622Z,17.82
2019-01-24T11:07:10.780Z,18.50
2019-01-24T11:09:47.622Z,18.80
2019-01-24T11:12:24.689Z,19.70
2019-01-24T11:15:00.840Z,19.10
2019-01-24T11:17:48.744Z,19.42
2019-01-24T11:20:25.043Z,19.02
2019-01-24T11:23:00.922Z,21.27
2019-01-24T11:25:37.071Z,21.15
2019-01-24T11:28:13.720Z,20.35
2019-01-24T11:30:50.297Z,20.20
2019-01-24T11:33:26.397Z,19.75
2019-01-24T11:36:02.930Z,20.80
2019-01-24T11:38:39.411Z,21.20
2019-01-24T11:41:16.680Z,20.33
2019-01-24T11:43:52.911Z,20.00
2019-01-24T11:46:29.317Z,21.05
2019-01-24T11:49:05.409Z,21.60
2019-01-24T11:51:41.444Z,21.48
2019-01-24T11:54:17.428Z,21.60
2019-01-24T11:56:53.738Z,20.37
2019-01-24T11:59:30.457Z,20.68
2019-01-24T12:02:07.124Z,21.67
2019-01-24T12:04:43.550Z,21.50
2019-01-24T12:07:19.889Z,23.60
2019-01-24T12:09:56.402Z,21.30
2019-01-24T12:12:32.869Z,22.95
2019-01-24T12:15:11.694Z,22.00
2019-01-24T12:17:47.740Z,23.05
2019-01-24T12:20:24.865Z,23.83
2019-01-24T12:23:00.578Z,23.60
2019-01-24T12:25:37.095Z,23.50
2019-01-24T12:28:13.334Z,23.30
2019-01-24T12:30:49.482Z,23.60
2019-01-24T12:33:25.716Z,24.10
2019-01-24T12:36:02.380Z,24.27
2019-01-24T12:38:38.797Z,22.77
2019-01-24T12:41:15.317Z,24.92
2019-01-24T12:43:52.657Z,23.75
2019-01-24T12:46:28.841Z,23.87
2019-01-24T12:49:05.070Z,23.85
2019-01-24T12:51:40.966Z,23.52
2019-01-24T12:54:16.901Z,24.63
2019-01-24T12:56:52.648Z,24.00
2019-01-24T12:59:29.496Z,24.27
2019-01-24T13:02:05.634Z,23.95
2019-01-24T13:04:42.772Z,24.47
2019-01-24T13:07:18.627Z,24.60
2019-01-24T13:09:54.778Z,24.07
2019-01-24T13:12:32.693Z,23.03
2019-01-24T13:15:10.036Z,23.30
2019-01-24T13:17:45.811Z,22.60
2019-01-24T13:20:23.032Z,24.47
2019-01-24T13:22:59.552Z,24.23
2019-01-24T13:25:36.461Z,22.40
2019-01-24T13:28:13.237Z,23.12
2019-01-24T13:30:50.121Z,23.87
2019-01-24T13:33:26.711Z,23.30
2019-01-24T13:36:02.933Z,23.12
2019-01-24T13:38:39.316Z,23.02
2019-01-24T13:41:15.832Z,23.27
2019-01-24T13:43:51.932Z,22.45
2019-01-24T13:46:28.144Z,23.10
2019-01-24T13:49:04.879Z,22.17
2019-01-24T13:51:41.376Z,22.63
2019-01-24T13:54:48.433Z,21.87
2019-01-24T13:57:25.419Z,22.13
2019-01-24T14:00:01.707Z,22.22
2019-01-24T14:02:39.728Z,22.40
2019-01-24T14:05:27.489Z,21.33
2019-01-24T14:08:04.034Z,21.52
2019-01-24T14:10:40.040Z,21.43
2019-01-24T14:13:16.420Z,22.45
2019-01-24T14:15:52.595Z,21.55
2019-01-24T14:18:29.638Z,21.50
2019-01-24T14:21:05.671Z,20.73
2019-01-24T14:23:42.210Z,21.93
2019-01-24T14:26:18.565Z,22.60
2019-01-24T14:28:55.210Z,21.42
2019-01-24T14:31:31.261Z,21.20
2019-01-24T14:34:07.793Z,22.32
2019-01-24T14:36:43.985Z,20.95
2019-01-24T14:39:20.629Z,20.43
2019-01-24T14:41:56.502Z,21.10
2019-01-24T14:44:32.528Z,21.52
2019-01-24T14:47:08.420Z,20.30
2019-01-24T14:49:44.909Z,21.33
2019-01-24T14:52:21.377Z,19.75
2019-01-24T14:54:58.029Z,21.10
2019-01-24T14:57:34.084Z,20.05
2019-01-24T15:00:29.634Z,19.42
2019-01-24T15:03:06.776Z,19.48
2019-01-24T15:05:43.638Z,20.72
2019-01-24T15:08:20.008Z,20.60
2019-01-24T15:10:56.506Z,20.32
2019-01-24T15:13:32.280Z,20.72
2019-01-24T15:16:09.383Z,19.57
2019-01-24T15:18:45.868Z,20.57
2019-01-24T15:21:24.086Z,20.77
2019-01-24T15:24:00.604Z,20.05
2019-01-24T15:26:36.912Z,20.60
2019-01-24T15:29:12.809Z,19.98
2019-01-24T15:31:49.581Z,19.75
2019-01-24T15:34:25.793Z,20.25
2019-01-24T15:37:02.260Z,19.80
2019-01-24T15:39:38.297Z,19.62
2019-01-24T15:42:14.810Z,20.43
2019-01-24T15:44:50.928Z,19.27
2019-01-24T15:47:27.129Z,20.27
2019-01-24T15:50:02.936Z,20.05
2019-01-24T15:52:39.306Z,20.23
2019-01-24T15:55:15.832Z,19.77
2019-01-24T15:57:53.844Z,18.92
2019-01-24T16:00:31.999Z,19.85
2019-01-24T16:03:09.114Z,20.70
2019-01-24T16:05:44.907Z,20.20
2019-01-24T16:08:21.361Z,21.00
2019-01-24T16:10:58.191Z,20.97
2019-01-24T16:13:34.253Z,21.05
2019-01-24T16:16:10.569Z,19.93
2019-01-24T16:18:47.940Z,20.77
2019-01-24T16:21:24.011Z,21.02
2019-01-24T16:24:00.490Z,19.77
2019-01-24T16:26:37.325Z,21.30
2019-01-24T16:29:13.602Z,19.42
2019-01-24T16:31:49.614Z,21.48
2019-01-24T16:34:25.867Z,20.83
2019-01-24T16:37:02.457Z,19.73
2019-01-24T16:39:39.006Z,19.83
2019-01-24T16:42:14.931Z,20.75
2019-01-24T16:44:51.182Z,20.25
2019-01-24T16:47:27.372Z,20.27
2019-01-24T16:50:04.575Z,20.50
2019-01-24T16:52:41.378Z,20.72
2019-01-24T16:55:18.930Z,21.02
2019-01-24T16:57:55.485Z,20.10
2019-01-24T17:00:47.451Z,19.80
2019-01-24T17:03:23.573Z,21.20
2019-01-24T17:05:59.953Z,20.25
2019-01-24T17:08:35.839Z,19.12
2019-01-24T17:11:12.418Z,20.60
2019-01-24T17:13:49.180Z,18.93
2019-01-24T17:16:25.498Z,19.40
2019-01-24T17:19:01.418Z,19.65
2019-01-24T17:21:38.642Z,18.73
2019-01-24T17:24:14.932Z,20.02
2019-01-24T17:26:51.380Z,20.40
2019-01-24T17:29:27.746Z,18.70
2019-01-24T17:32:04.073Z,20.27
2019-01-24T17:34:40.192Z,19.77
2019-01-24T17:37:17.002Z,20.33
2019-01-24T17:39:53.060Z,18.85
2019-01-24T17:42:30.333Z,20.25
2019-01-24T17:45:08.005Z,18.60
2019-01-24T17:47:46.661Z,19.67
2019-01-24T17:50:22.782Z,19.77
2019-01-24T17:52:59.369Z,20.13
2019-01-24T17:55:38.120Z,34.50
2019-01-24T17:58:14.036Z,39.97
2019-01-24T18:00:51.853Z,35.68
2019-01-24T18:03:29.757Z,31.23
2019-01-24T18:06:05.945Z,32.43
2019-01-24T18:08:42.693Z,30.23
2019-01-24T18:11:19.464Z,30.27
2019-01-24T18:13:55.289Z,28.52
2019-01-24T18:16:32.080Z,28.93
2019-01-24T18:19:08.061Z,29.42
2019-01-24T18:21:44.501Z,28.47
2019-01-24T18:24:20.340Z,27.25
2019-01-24T18:26:56.771Z,27.65
2019-01-24T18:29:34.048Z,26.77
2019-01-24T18:32:12.012Z,26.57
2019-01-24T18:34:48.014Z,26.48
2019-01-24T18:37:24.008Z,27.30
2019-01-24T18:40:11.734Z,26.93
2019-01-24T18:42:48.545Z,25.72
2019-01-24T18:45:33.041Z,25.12
2019-01-24T18:48:09.561Z,24.20
2019-01-24T18:50:46.229Z,26.10
2019-01-24T18:53:22.916Z,24.65
2019-01-24T18:55:59.335Z,23.67
2019-01-24T18:58:35.114Z,23.98
2019-01-24T19:01:11.376Z,24.85
2019-01-24T19:03:47.450Z,23.80
2019-01-24T19:06:23.633Z,22.62
2019-01-24T19:08:59.898Z,23.10
2019-01-24T19:11:36.369Z,24.23
2019-01-24T19:14:13.403Z,22.80
2019-01-24T19:16:50.425Z,23.20
2019-01-24T19:19:27.122Z,21.73
2019-01-24T19:22:03.614Z,21.83
2019-01-24T19:24:39.925Z,22.70
2019-01-24T19:27:15.997Z,22.48
2019-01-24T19:29:54.741Z,23.47
2019-01-24T19:32:31.419Z,22.27
2019-01-24T19:35:08.344Z,22.05
2019-01-24T19:37:45.108Z,22.93
2019-01-24T19:40:22.338Z,21.55
2019-01-24T19:42:58.738Z,21.00
2019-01-24T19:45:34.848Z,22.62
2019-01-24T19:48:10.920Z,22.27
2019-01-24T19:50:47.949Z,22.70
2019-01-24T19:53:24.366Z,19.85
2019-01-24T19:56:01.068Z,20.85
2019-01-24T19:58:37.612Z,21.07
2019-01-24T20:01:13.956Z,21.80
2019-01-24T20:03:50.406Z,19.25
2019-01-24T20:06:26.654Z,21.97
2019-01-24T20:09:04.267Z,20.95
2019-01-24T20:11:41.463Z,21.87
2019-01-24T20:14:19.104Z,20.00
2019-01-24T20:16:55.438Z,19.92
2019-01-24T20:19:31.534Z,19.20
2019-01-24T20:22:07.640Z,20.52
2019-01-24T20:24:44.035Z,18.73
2019-01-24T20:27:20.220Z,20.25
2019-01-24T20:29:56.486Z,20.70
2019-01-24T20:32:33.689Z,20.05
2019-01-24T20:35:15.168Z,18.97
2019-01-24T20:37:51.014Z,19.42
2019-01-24T20:40:28.019Z,19.60
2019-01-24T20:43:04.684Z,19.27
2019-01-24T20:45:41.604Z,20.30
2019-01-24T20:48:18.193Z,17.30
2019-01-24T20:50:55.096Z,18.70
2019-01-24T20:53:31.457Z,19.60
2019-01-24T20:56:08.188Z,19.27
2019-01-24T20:58:44.889Z,19.93
2019-01-24T21:01:21.888Z,17.92
2019-01-24T21:03:58.317Z,19.80
2019-01-24T21:06:35.022Z,19.12
2019-01-24T21:09:14.867Z,17.87
2019-01-24T21:11:49.806Z,18.60
2019-01-24T21:14:26.896Z,17.27
2019-01-24T21:17:04.236Z,17.92
2019-01-24T21:19:40.931Z,18.10
2019-01-24T21:22:17.022Z,17.90
2019-01-24T21:24:53.003Z,17.53
2019-01-24T21:27:29.836Z,17.48
2019-01-24T21:30:08.418Z,16.73
2019-01-24T21:32:44.599Z,16.95
2019-01-24T21:35:21.073Z,16.45
2019-01-24T21:37:57.407Z,17.25
2019-01-24T21:40:33.878Z,18.45
2019-01-24T21:43:10.322Z,18.00
2019-01-24T21:45:46.376Z,17.73
2019-01-24T21:48:22.945Z,16.40
2019-01-24T21:50:58.876Z,17.73
2019-01-24T21:53:35.476Z,16.00
2019-01-24T21:56:11.704Z,17.70
2019-01-24T21:58:48.261Z,16.85
2019-01-24T22:01:24.356Z,16.12
2019-01-24T22:04:01.016Z,18.00
2019-01-24T22:06:37.544Z,15.75
2019-01-24T22:09:13.881Z,16.95
2019-01-24T22:11:49.834Z,16.40
2019-01-24T22:14:26.520Z,17.17
2019-01-24T22:17:03.015Z,15.73
2019-01-24T22:19:39.146Z,16.48
2019-01-24T22:22:15.632Z,15.32
2019-01-24T22:24:52.437Z,15.83
2019-01-24T22:27:29.191Z,16.42
2019-01-24T22:30:07.463Z,15.85
2019-01-24T22:32:43.652Z,15.38
2019-01-24T22:35:20.276Z,15.60
2019-01-24T22:37:56.712Z,16.30
2019-01-24T22:40:32.860Z,15.70
2019-01-24T22:43:10.171Z,14.75
2019-01-24T22:45:46.704Z,15.40
2019-01-24T22:48:22.916Z,15.83
2019-01-24T22:50:58.825Z,15.13
2019-01-24T22:53:35.116Z,16.10
2019-01-24T22:56:11.344Z,15.85
2019-01-24T22:58:47.638Z,15.77
2019-01-24T23:01:50.260Z,14.53
2019-01-24T23:04:26.728Z,14.90
2019-01-24T23:07:04.712Z,13.47
2019-01-24T23:09:44.288Z,15.55
2019-01-24T23:12:19.183Z,15.32
2019-01-24T23:14:55.736Z,14.40
2019-01-24T23:17:31.485Z,14.10
2019-01-24T23:20:09.977Z,14.85
2019-01-24T23:22:46.788Z,14.40
2019-01-24T23:25:23.720Z,14.10
2019-01-24T23:28:01.024Z,14.68
2019-01-24T23:30:38.320Z,13.13
2019-01-24T23:33:14.765Z,14.68
2019-01-24T23:35:50.742Z,14.10
2019-01-24T23:38:28.044Z,13.30
2019-01-24T23:41:04.555Z,14.13
2019-01-24T23:43:40.821Z,13.43
2019-01-24T23:46:17.559Z,13.30
2019-01-24T23:48:53.949Z,13.67
2019-01-24T23:51:30.921Z,13.45
2019-01-24T23:54:26.154Z,13.72
2019-01-24T23:57:02.823Z,13.40
2019-01-24T23:59:39.205Z,13.85
